F/V Adeline Stephen — FGUF — position and weather

sailwx.info

Track history (hours):
 
Tides and Currents Weather Stations Pressure Air Temp Water Temp Dewpoint Dewpoint Depression Visibility Wind Speed Wind Dir Waves Ship Positions

F/V Adeline Stephen

Last reported at 2018-Feb-21 15:17 UTC. Time now 2018-Feb-22 03:34 UTC.
Position N 47°44' W 003°22'.

Length 18 m.

Type: Fishing. MMSI: 228929000.

Date/timePositionNaut miles runAvg speedWind from/ knotsBaromVisibWave heightAir tempDewpointWater temp
2018-Feb-21 15:17N 47°44' W 003°22'0 0.0
2018-Feb-21 15:00N 47°44' W 003°22'0 0.0
2018-Feb-21 14:30N 47°44' W 003°22'0 0.0
2018-Feb-21 14:00N 47°44' W 003°22'0 0.0
2018-Feb-21 13:30N 47°44' W 003°22'0 0.0
2018-Feb-21 13:00N 47°44' W 003°22'0 0.0
2018-Feb-21 12:30N 47°44' W 003°22'0 0.0
2018-Feb-21 12:00N 47°44' W 003°22'1 2.7
2018-Feb-21 11:30N 47°42' W 003°22'4 8.5
2018-Feb-21 11:00N 47°38' W 003°20'5 9.2
2018-Feb-21 10:30N 47°34' W 003°17'5 9.3
2018-Feb-21 10:00N 47°30' W 003°14'5 9.3
2018-Feb-21 09:30N 47°26' W 003°10'5 9.1
2018-Feb-21 09:00N 47°23' W 003°06'4 8.7
2018-Feb-21 08:29N 47°19' W 003°02'22 0.9
2018-Feb-20 08:25N 47°13' W 003°34'2 3.6
2018-Feb-20 08:00N 47°15' W 003°34'2 3.3
2018-Feb-20 07:26N 47°17' W 003°36'2 4.3
2018-Feb-20 07:00N 47°18' W 003°36'5 8.9
2018-Feb-20 06:25N 47°23' W 003°33'4 9.0
2018-Feb-20 06:00N 47°27' W 003°30'4 8.8
2018-Feb-20 05:30N 47°30' W 003°27'4 8.8
2018-Feb-20 05:00N 47°34' W 003°24'4 8.9
2018-Feb-20 04:30N 47°39' W 003°23'  
2018-Feb-16 23:13N 47°44' W 003°22'0 0.0
2018-Feb-16 23:00N 47°44' W 003°22'4 7.5
2018-Feb-16 22:30N 47°41' W 003°25'4 8.2
2018-Feb-16 22:00N 47°40' W 003°31'4 8.3
2018-Feb-16 21:30N 47°38' W 003°37'4 8.5
2018-Feb-16 21:00N 47°35' W 003°41'40 0.9
2018-Feb-15 02:01N 47°12' W 002°52'0 3.5
2018-Feb-15 01:59N 47°12' W 002°52'4 3.5
2018-Feb-15 00:56N 47°11' W 002°57'2 3.8
2018-Feb-15 00:30N 47°10' W 002°59'8 6.8
2018-Feb-14 23:19N 47°11' W 003°11'12 1.0
2018-Feb-14 12:09N 47°15' W 002°55'3 1.2
2018-Feb-14 09:31N 47°17' W 002°52'0 2.9
2018-Feb-14 09:30N 47°17' W 002°52'1 2.8
2018-Feb-14 09:00N 47°17' W 002°53'2 0.3
2018-Feb-14 03:39N 47°17' W 002°51'1 3.8
2018-Feb-14 03:30N 47°16' W 002°51'1 0.5
2018-Feb-14 01:54N 47°16' W 002°51'1 3.4
2018-Feb-14 01:30N 47°17' W 002°52'2 3.8
2018-Feb-14 01:00N 47°16' W 002°55'3 1.5
2018-Feb-13 23:07N 47°15' W 002°51'1 3.3
2018-Feb-13 22:54N 47°15' W 002°51'1 3.5
2018-Feb-13 22:29N 47°17' W 002°52'2 3.6
2018-Feb-13 22:00N 47°17' W 002°54'4 7.1
2018-Feb-13 21:31N 47°19' W 002°58'4 8.7
2018-Feb-13 21:01N 47°22' W 003°04'4 8.6
2018-Feb-13 20:31N 47°25' W 003°08'4 8.1
2018-Feb-13 20:00N 47°28' W 003°11'4 8.3
2018-Feb-13 19:31N 47°32' W 003°14'4 8.4
2018-Feb-13 19:01N 47°35' W 003°18'4 8.6
2018-Feb-13 18:30N 47°39' W 003°21'4 9.0
2018-Feb-13 18:00N 47°43' W 003°22'0 0.5
2018-Feb-13 17:30N 47°44' W 003°22'0 0.1
2018-Feb-13 17:00N 47°44' W 003°22'0 0.0
2018-Feb-13 16:30N 47°44' W 003°22'0 0.0
2018-Feb-13 16:00N 47°44' W 003°22'0 0.0
2018-Feb-13 15:30N 47°44' W 003°22'0 0.0
2018-Feb-13 15:00N 47°44' W 003°22'0 0.0
2018-Feb-13 14:30N 47°44' W 003°22'0 0.0
2018-Feb-13 14:00N 47°44' W 003°22'0 0.0
2018-Feb-13 13:30N 47°44' W 003°22'0 0.0
2018-Feb-13 13:00N 47°44' W 003°22'0 0.0
2018-Feb-13 12:30N 47°44' W 003°22'0 0.0
2018-Feb-13 12:00N 47°44' W 003°22'0 0.0
2018-Feb-13 11:30N 47°44' W 003°22'0 0.0
2018-Feb-13 11:00N 47°44' W 003°22'3 5.2
2018-Feb-13 10:30N 47°41' W 003°22'4 8.4
2018-Feb-13 10:01N 47°37' W 003°23'4 7.8
2018-Feb-13 09:30N 47°33' W 003°24'4 7.3
2018-Feb-13 09:00N 47°30' W 003°26'4 7.0
2018-Feb-13 08:30N 47°27' W 003°28'3 6.9
2018-Feb-13 08:01N 47°24' W 003°31'4 7.0
2018-Feb-13 07:30N 47°21' W 003°34'  
Track history (hours):
 
Tides and Currents Weather Stations Pressure Air Temp Water Temp Dewpoint Dewpoint Depression Visibility Wind Speed Wind Dir Waves Ship Positions

F/V Adeline Stephen

Last reported at 2018-Feb-21 15:17 UTC. Time now 2018-Feb-22 03:34 UTC.
Position N 47°44' W 003°22'.

Length 18 m.

Type: Fishing. MMSI: 228929000.

Date/timePositionNaut miles runAvg speedWind from/ knotsBaromVisibWave heightAir tempDewpointWater temp
2018-Feb-21 15:17N 47°44' W 003°22'0 0.0
2018-Feb-21 15:00N 47°44' W 003°22'0 0.0
2018-Feb-21 14:30N 47°44' W 003°22'0 0.0
2018-Feb-21 14:00N 47°44' W 003°22'0 0.0
2018-Feb-21 13:30N 47°44' W 003°22'0 0.0
2018-Feb-21 13:00N 47°44' W 003°22'0 0.0
2018-Feb-21 12:30N 47°44' W 003°22'0 0.0
2018-Feb-21 12:00N 47°44' W 003°22'1 2.7
2018-Feb-21 11:30N 47°42' W 003°22'4 8.5
2018-Feb-21 11:00N 47°38' W 003°20'5 9.2
2018-Feb-21 10:30N 47°34' W 003°17'5 9.3
2018-Feb-21 10:00N 47°30' W 003°14'5 9.3
2018-Feb-21 09:30N 47°26' W 003°10'5 9.1
2018-Feb-21 09:00N 47°23' W 003°06'4 8.7
2018-Feb-21 08:29N 47°19' W 003°02'22 0.9
2018-Feb-20 08:25N 47°13' W 003°34'2 3.6
2018-Feb-20 08:00N 47°15' W 003°34'2 3.3
2018-Feb-20 07:26N 47°17' W 003°36'2 4.3
2018-Feb-20 07:00N 47°18' W 003°36'5 8.9
2018-Feb-20 06:25N 47°23' W 003°33'4 9.0
2018-Feb-20 06:00N 47°27' W 003°30'4 8.8
2018-Feb-20 05:30N 47°30' W 003°27'4 8.8
2018-Feb-20 05:00N 47°34' W 003°24'4 8.9
2018-Feb-20 04:30N 47°39' W 003°23'  
2018-Feb-16 23:13N 47°44' W 003°22'0 0.0
2018-Feb-16 23:00N 47°44' W 003°22'4 7.5
2018-Feb-16 22:30N 47°41' W 003°25'4 8.2
2018-Feb-16 22:00N 47°40' W 003°31'4 8.3
2018-Feb-16 21:30N 47°38' W 003°37'4 8.5
2018-Feb-16 21:00N 47°35' W 003°41'40 0.9
2018-Feb-15 02:01N 47°12' W 002°52'0 3.5
2018-Feb-15 01:59N 47°12' W 002°52'4 3.5
2018-Feb-15 00:56N 47°11' W 002°57'2 3.8
2018-Feb-15 00:30N 47°10' W 002°59'8 6.8
2018-Feb-14 23:19N 47°11' W 003°11'12 1.0
2018-Feb-14 12:09N 47°15' W 002°55'3 1.2
2018-Feb-14 09:31N 47°17' W 002°52'0 2.9
2018-Feb-14 09:30N 47°17' W 002°52'1 2.8
2018-Feb-14 09:00N 47°17' W 002°53'2 0.3
2018-Feb-14 03:39N 47°17' W 002°51'1 3.8
2018-Feb-14 03:30N 47°16' W 002°51'1 0.5
2018-Feb-14 01:54N 47°16' W 002°51'1 3.4
2018-Feb-14 01:30N 47°17' W 002°52'2 3.8
2018-Feb-14 01:00N 47°16' W 002°55'3 1.5
2018-Feb-13 23:07N 47°15' W 002°51'1 3.3
2018-Feb-13 22:54N 47°15' W 002°51'1 3.5
2018-Feb-13 22:29N 47°17' W 002°52'2 3.6
2018-Feb-13 22:00N 47°17' W 002°54'4 7.1
2018-Feb-13 21:31N 47°19' W 002°58'4 8.7
2018-Feb-13 21:01N 47°22' W 003°04'4 8.6
2018-Feb-13 20:31N 47°25' W 003°08'4 8.1
2018-Feb-13 20:00N 47°28' W 003°11'4 8.3
2018-Feb-13 19:31N 47°32' W 003°14'4 8.4
2018-Feb-13 19:01N 47°35' W 003°18'4 8.6
2018-Feb-13 18:30N 47°39' W 003°21'4 9.0
2018-Feb-13 18:00N 47°43' W 003°22'0 0.5
2018-Feb-13 17:30N 47°44' W 003°22'0 0.1
2018-Feb-13 17:00N 47°44' W 003°22'0 0.0
2018-Feb-13 16:30N 47°44' W 003°22'0 0.0
2018-Feb-13 16:00N 47°44' W 003°22'0 0.0
2018-Feb-13 15:30N 47°44' W 003°22'0 0.0
2018-Feb-13 15:00N 47°44' W 003°22'0 0.0
2018-Feb-13 14:30N 47°44' W 003°22'0 0.0
2018-Feb-13 14:00N 47°44' W 003°22'0 0.0
2018-Feb-13 13:30N 47°44' W 003°22'0 0.0
2018-Feb-13 13:00N 47°44' W 003°22'0 0.0
2018-Feb-13 12:30N 47°44' W 003°22'0 0.0
2018-Feb-13 12:00N 47°44' W 003°22'0 0.0
2018-Feb-13 11:30N 47°44' W 003°22'0 0.0
2018-Feb-13 11:00N 47°44' W 003°22'3 5.2
2018-Feb-13 10:30N 47°41' W 003°22'4 8.4
2018-Feb-13 10:01N 47°37' W 003°23'4 7.8
2018-Feb-13 09:30N 47°33' W 003°24'4 7.3
2018-Feb-13 09:00N 47°30' W 003°26'4 7.0
2018-Feb-13 08:30N 47°27' W 003°28'3 6.9
2018-Feb-13 08:01N 47°24' W 003°31'4 7.0
2018-Feb-13 07:30N 47°21' W 003°34'  

Dump ship's entire track history